sensor_id;sensor_type;location;lat;lon;timestamp;P1;durP1;ratioP1;P2;durP2;ratioP2
33862;SDS011;20158;51.436;-2.742;2022-09-25T00:00:41;1.55;;;0.90;;
33862;SDS011;20158;51.436;-2.742;2022-09-25T00:03:10;3.05;;;1.10;;
33862;SDS011;20158;51.436;-2.742;2022-09-25T00:05:38;3.00;;;1.10;;
33862;SDS011;20158;51.436;-2.742;2022-09-25T00:08:05;2.00;;;1.02;;
33862;SDS011;20158;51.436;-2.742;2022-09-25T00:10:38;2.80;;;1.65;;
33862;SDS011;20158;51.436;-2.742;2022-09-25T00:13:08;2.63;;;1.10;;
33862;SDS011;20158;51.436;-2.742;2022-09-25T00:15:35;3.90;;;0.82;;
33862;SDS011;20158;51.436;-2.742;2022-09-25T00:18:01;1.77;;;0.93;;
33862;SDS011;20158;51.436;-2.742;2022-09-25T00:20:27;5.32;;;1.40;;
33862;SDS011;20158;51.436;-2.742;2022-09-25T00:22:54;2.17;;;1.25;;
33862;SDS011;20158;51.436;-2.742;2022-09-25T00:25:20;1.90;;;0.93;;
33862;SDS011;20158;51.436;-2.742;2022-09-25T00:27:46;2.80;;;1.13;;
33862;SDS011;20158;51.436;-2.742;2022-09-25T00:30:15;2.65;;;1.30;;
33862;SDS011;20158;51.436;-2.742;2022-09-25T00:32:41;2.53;;;0.95;;
33862;SDS011;20158;51.436;-2.742;2022-09-25T00:35:07;6.53;;;1.00;;
33862;SDS011;20158;51.436;-2.742;2022-09-25T00:37:33;3.40;;;1.60;;
33862;SDS011;20158;51.436;-2.742;2022-09-25T00:40:00;2.83;;;1.45;;
33862;SDS011;20158;51.436;-2.742;2022-09-25T00:42:27;6.75;;;1.10;;
33862;SDS011;20158;51.436;-2.742;2022-09-25T00:47:58;3.38;;;1.13;;
33862;SDS011;20158;51.436;-2.742;2022-09-25T00:53:30;4.60;;;1.20;;
33862;SDS011;20158;51.436;-2.742;2022-09-25T00:55:55;4.35;;;1.23;;
33862;SDS011;20158;51.436;-2.742;2022-09-25T00:58:27;6.30;;;1.55;;
33862;SDS011;20158;51.436;-2.742;2022-09-25T01:00:57;3.15;;;1.40;;
33862;SDS011;20158;51.436;-2.742;2022-09-25T01:03:23;1.52;;;0.80;;
33862;SDS011;20158;51.436;-2.742;2022-09-25T01:05:51;3.75;;;1.05;;
33862;SDS011;20158;51.436;-2.742;2022-09-25T01:08:20;3.20;;;1.63;;
33862;SDS011;20158;51.436;-2.742;2022-09-25T01:10:50;2.85;;;1.60;;
33862;SDS011;20158;51.436;-2.742;2022-09-25T01:13:18;2.88;;;1.30;;
33862;SDS011;20158;51.436;-2.742;2022-09-25T01:18:44;4.00;;;1.50;;
33862;SDS011;20158;51.436;-2.742;2022-09-25T01:24:17;1.80;;;0.98;;
33862;SDS011;20158;51.436;-2.742;2022-09-25T01:41:11;3.75;;;1.45;;
33862;SDS011;20158;51.436;-2.742;2022-09-25T01:46:44;2.72;;;1.35;;
33862;SDS011;20158;51.436;-2.742;2022-09-25T01:49:16;4.43;;;1.98;;
33862;SDS011;20158;51.436;-2.742;2022-09-25T01:51:57;4.63;;;2.03;;
33862;SDS011;20158;51.436;-2.742;2022-09-25T01:54:31;3.60;;;2.00;;
33862;SDS011;20158;51.436;-2.742;2022-09-25T01:57:09;3.45;;;2.03;;
33862;SDS011;20158;51.436;-2.742;2022-09-25T01:59:49;3.03;;;2.08;;
33862;SDS011;20158;51.436;-2.742;2022-09-25T02:02:19;3.22;;;2.15;;
33862;SDS011;20158;51.436;-2.742;2022-09-25T02:04:54;4.93;;;2.00;;
33862;SDS011;20158;51.436;-2.742;2022-09-25T02:07:49;5.03;;;2.28;;
33862;SDS011;20158;51.436;-2.742;2022-09-25T02:10:24;5.28;;;1.90;;
33862;SDS011;20158;51.436;-2.742;2022-09-25T02:13:11;4.30;;;2.33;;
33862;SDS011;20158;51.436;-2.742;2022-09-25T02:15:43;4.85;;;2.08;;
33862;SDS011;20158;51.436;-2.742;2022-09-25T02:18:18;4.38;;;2.08;;
33862;SDS011;20158;51.436;-2.742;2022-09-25T02:23:41;3.42;;;1.98;;
33862;SDS011;20158;51.436;-2.742;2022-09-25T02:26:15;3.38;;;2.25;;
33862;SDS011;20158;51.436;-2.742;2022-09-25T02:29:03;4.25;;;2.40;;
33862;SDS011;20158;51.436;-2.742;2022-09-25T02:31:34;4.43;;;1.83;;
33862;SDS011;20158;51.436;-2.742;2022-09-25T02:34:10;4.03;;;2.00;;
33862;SDS011;20158;51.436;-2.742;2022-09-25T02:36:36;4.35;;;2.25;;
33862;SDS011;20158;51.436;-2.742;2022-09-25T02:39:03;4.97;;;1.92;;
33862;SDS011;20158;51.436;-2.742;2022-09-25T02:41:38;4.95;;;1.95;;
33862;SDS011;20158;51.436;-2.742;2022-09-25T02:47:18;5.32;;;2.22;;
33862;SDS011;20158;51.436;-2.742;2022-09-25T02:55:38;2.28;;;2.08;;
33862;SDS011;20158;51.436;-2.742;2022-09-25T03:00:35;3.17;;;1.85;;
33862;SDS011;20158;51.436;-2.742;2022-09-25T03:03:03;2.58;;;1.80;;
33862;SDS011;20158;51.436;-2.742;2022-09-25T03:05:32;3.42;;;1.88;;
33862;SDS011;20158;51.436;-2.742;2022-09-25T03:08:00;3.67;;;1.90;;
33862;SDS011;20158;51.436;-2.742;2022-09-25T03:10:44;4.00;;;2.60;;
33862;SDS011;20158;51.436;-2.742;2022-09-25T03:13:18;4.80;;;2.10;;
33862;SDS011;20158;51.436;-2.742;2022-09-25T03:15:50;4.30;;;2.00;;
33862;SDS011;20158;51.436;-2.742;2022-09-25T03:18:20;3.20;;;1.67;;
33862;SDS011;20158;51.436;-2.742;2022-09-25T03:20:46;5.05;;;2.45;;
33862;SDS011;20158;51.436;-2.742;2022-09-25T03:23:12;3.50;;;1.58;;
33862;SDS011;20158;51.436;-2.742;2022-09-25T03:25:39;6.10;;;2.10;;
33862;SDS011;20158;51.436;-2.742;2022-09-25T03:28:11;3.40;;;2.03;;
33862;SDS011;20158;51.436;-2.742;2022-09-25T03:30:37;2.42;;;1.60;;
33862;SDS011;20158;51.436;-2.742;2022-09-25T03:33:05;2.08;;;1.50;;
33862;SDS011;20158;51.436;-2.742;2022-09-25T03:35:35;2.83;;;1.42;;
33862;SDS011;20158;51.436;-2.742;2022-09-25T03:38:01;5.28;;;2.00;;
33862;SDS011;20158;51.436;-2.742;2022-09-25T03:40:28;6.32;;;2.53;;
33862;SDS011;20158;51.436;-2.742;2022-09-25T03:42:54;3.08;;;1.77;;
33862;SDS011;20158;51.436;-2.742;2022-09-25T03:45:20;4.13;;;1.30;;
33862;SDS011;20158;51.436;-2.742;2022-09-25T03:47:46;3.50;;;2.17;;
33862;SDS011;20158;51.436;-2.742;2022-09-25T03:50:13;1.98;;;1.60;;
33862;SDS011;20158;51.436;-2.742;2022-09-25T03:52:39;3.88;;;1.80;;
33862;SDS011;20158;51.436;-2.742;2022-09-25T03:55:06;4.22;;;2.13;;
33862;SDS011;20158;51.436;-2.742;2022-09-25T03:57:32;4.80;;;1.60;;
33862;SDS011;20158;51.436;-2.742;2022-09-25T03:59:59;2.90;;;1.50;;
33862;SDS011;20158;51.436;-2.742;2022-09-25T04:02:38;3.20;;;1.73;;
33862;SDS011;20158;51.436;-2.742;2022-09-25T04:05:04;2.30;;;1.27;;
33862;SDS011;20158;51.436;-2.742;2022-09-25T04:07:31;2.17;;;1.60;;
33862;SDS011;20158;51.436;-2.742;2022-09-25T04:09:57;2.10;;;1.63;;
33862;SDS011;20158;51.436;-2.742;2022-09-25T04:12:23;3.08;;;1.75;;
33862;SDS011;20158;51.436;-2.742;2022-09-25T04:14:49;3.95;;;2.45;;
33862;SDS011;20158;51.436;-2.742;2022-09-25T04:17:15;4.85;;;2.03;;
33862;SDS011;20158;51.436;-2.742;2022-09-25T04:19:42;3.45;;;1.75;;
33862;SDS011;20158;51.436;-2.742;2022-09-25T04:22:08;4.70;;;1.83;;
33862;SDS011;20158;51.436;-2.742;2022-09-25T04:24:34;5.03;;;2.25;;
33862;SDS011;20158;51.436;-2.742;2022-09-25T04:27:12;2.83;;;2.15;;
33862;SDS011;20158;51.436;-2.742;2022-09-25T04:29:38;3.33;;;2.03;;
33862;SDS011;20158;51.436;-2.742;2022-09-25T04:32:06;3.13;;;2.10;;
33862;SDS011;20158;51.436;-2.742;2022-09-25T04:34:51;3.08;;;1.92;;
33862;SDS011;20158;51.436;-2.742;2022-09-25T04:37:17;3.38;;;1.65;;
33862;SDS011;20158;51.436;-2.742;2022-09-25T04:39:45;3.22;;;2.08;;
33862;SDS011;20158;51.436;-2.742;2022-09-25T04:42:11;2.15;;;1.95;;
33862;SDS011;20158;51.436;-2.742;2022-09-25T04:44:37;4.47;;;2.17;;
33862;SDS011;20158;51.436;-2.742;2022-09-25T04:47:03;3.20;;;1.70;;
33862;SDS011;20158;51.436;-2.742;2022-09-25T04:49:30;2.85;;;1.75;;
33862;SDS011;20158;51.436;-2.742;2022-09-25T04:51:56;2.60;;;1.98;;
33862;SDS011;20158;51.436;-2.742;2022-09-25T04:54:22;1.98;;;1.50;;
33862;SDS011;20158;51.436;-2.742;2022-09-25T04:56:48;3.30;;;1.80;;
33862;SDS011;20158;51.436;-2.742;2022-09-25T04:59:14;4.40;;;1.88;;
33862;SDS011;20158;51.436;-2.742;2022-09-25T05:01:42;2.75;;;1.63;;
33862;SDS011;20158;51.436;-2.742;2022-09-25T05:04:10;3.80;;;2.10;;
33862;SDS011;20158;51.436;-2.742;2022-09-25T05:06:36;2.25;;;1.40;;
33862;SDS011;20158;51.436;-2.742;2022-09-25T05:09:02;3.40;;;1.52;;
33862;SDS011;20158;51.436;-2.742;2022-09-25T05:11:28;3.40;;;1.90;;
33862;SDS011;20158;51.436;-2.742;2022-09-25T05:13:54;2.63;;;1.88;;
33862;SDS011;20158;51.436;-2.742;2022-09-25T05:16:22;2.15;;;1.80;;
33862;SDS011;20158;51.436;-2.742;2022-09-25T05:18:51;1.85;;;1.45;;
33862;SDS011;20158;51.436;-2.742;2022-09-25T05:21:17;4.68;;;1.73;;
33862;SDS011;20158;51.436;-2.742;2022-09-25T05:23:44;2.22;;;1.70;;
33862;SDS011;20158;51.436;-2.742;2022-09-25T05:26:10;2.22;;;2.03;;
33862;SDS011;20158;51.436;-2.742;2022-09-25T05:28:37;2.55;;;1.77;;
33862;SDS011;20158;51.436;-2.742;2022-09-25T05:31:04;2.05;;;1.73;;
33862;SDS011;20158;51.436;-2.742;2022-09-25T05:33:30;4.15;;;1.85;;
33862;SDS011;20158;51.436;-2.742;2022-09-25T05:36:03;3.05;;;1.80;;
33862;SDS011;20158;51.436;-2.742;2022-09-25T05:38:30;4.50;;;1.95;;
33862;SDS011;20158;51.436;-2.742;2022-09-25T05:41:04;3.72;;;1.95;;
33862;SDS011;20158;51.436;-2.742;2022-09-25T05:43:37;2.83;;;1.98;;
33862;SDS011;20158;51.436;-2.742;2022-09-25T05:46:05;2.65;;;2.25;;
33862;SDS011;20158;51.436;-2.742;2022-09-25T05:48:31;2.83;;;2.30;;
33862;SDS011;20158;51.436;-2.742;2022-09-25T05:50:57;3.83;;;1.95;;
33862;SDS011;20158;51.436;-2.742;2022-09-25T05:53:24;3.35;;;2.20;;
33862;SDS011;20158;51.436;-2.742;2022-09-25T05:55:54;2.92;;;1.75;;
33862;SDS011;20158;51.436;-2.742;2022-09-25T05:58:26;2.60;;;1.75;;
33862;SDS011;20158;51.436;-2.742;2022-09-25T06:00:53;4.88;;;2.10;;
33862;SDS011;20158;51.436;-2.742;2022-09-25T06:03:20;4.40;;;2.47;;
33862;SDS011;20158;51.436;-2.742;2022-09-25T06:05:46;2.40;;;2.05;;
33862;SDS011;20158;51.436;-2.742;2022-09-25T06:08:13;3.20;;;1.98;;
33862;SDS011;20158;51.436;-2.742;2022-09-25T06:10:39;4.43;;;2.33;;
33862;SDS011;20158;51.436;-2.742;2022-09-25T06:13:06;3.50;;;2.40;;
33862;SDS011;20158;51.436;-2.742;2022-09-25T06:15:37;3.35;;;2.30;;
33862;SDS011;20158;51.436;-2.742;2022-09-25T06:18:06;3.22;;;2.60;;
33862;SDS011;20158;51.436;-2.742;2022-09-25T06:20:34;2.65;;;2.45;;
33862;SDS011;20158;51.436;-2.742;2022-09-25T06:23:01;4.65;;;2.42;;
33862;SDS011;20158;51.436;-2.742;2022-09-25T06:25:29;2.90;;;2.47;;
33862;SDS011;20158;51.436;-2.742;2022-09-25T06:27:59;6.60;;;3.28;;
33862;SDS011;20158;51.436;-2.742;2022-09-25T06:30:27;4.88;;;2.53;;
33862;SDS011;20158;51.436;-2.742;2022-09-25T06:33:00;4.28;;;2.30;;
33862;SDS011;20158;51.436;-2.742;2022-09-25T06:35:34;5.88;;;2.30;;
33862;SDS011;20158;51.436;-2.742;2022-09-25T06:38:01;2.35;;;2.10;;
33862;SDS011;20158;51.436;-2.742;2022-09-25T06:40:31;3.65;;;2.50;;
33862;SDS011;20158;51.436;-2.742;2022-09-25T06:43:01;3.05;;;2.20;;
33862;SDS011;20158;51.436;-2.742;2022-09-25T06:45:30;6.05;;;3.00;;
33862;SDS011;20158;51.436;-2.742;2022-09-25T06:48:02;5.70;;;2.42;;
33862;SDS011;20158;51.436;-2.742;2022-09-25T06:50:40;2.50;;;2.28;;
33862;SDS011;20158;51.436;-2.742;2022-09-25T06:53:12;4.82;;;2.58;;
33862;SDS011;20158;51.436;-2.742;2022-09-25T06:55:39;3.60;;;2.63;;
33862;SDS011;20158;51.436;-2.742;2022-09-25T06:58:06;4.05;;;2.63;;
33862;SDS011;20158;51.436;-2.742;2022-09-25T07:00:34;3.63;;;2.63;;
33862;SDS011;20158;51.436;-2.742;2022-09-25T07:03:00;3.78;;;2.80;;
33862;SDS011;20158;51.436;-2.742;2022-09-25T07:05:45;4.97;;;3.15;;
33862;SDS011;20158;51.436;-2.742;2022-09-25T07:08:13;4.25;;;2.40;;
33862;SDS011;20158;51.436;-2.742;2022-09-25T07:10:48;4.18;;;2.47;;
33862;SDS011;20158;51.436;-2.742;2022-09-25T07:13:17;2.38;;;2.17;;
33862;SDS011;20158;51.436;-2.742;2022-09-25T07:16:22;3.88;;;2.05;;
33862;SDS011;20158;51.436;-2.742;2022-09-25T07:18:41;4.57;;;2.22;;
33862;SDS011;20158;51.436;-2.742;2022-09-25T07:21:11;3.58;;;1.73;;
33862;SDS011;20158;51.436;-2.742;2022-09-25T07:23:39;4.07;;;2.05;;
33862;SDS011;20158;51.436;-2.742;2022-09-25T07:26:10;3.70;;;2.08;;
33862;SDS011;20158;51.436;-2.742;2022-09-25T07:28:38;3.28;;;2.45;;
33862;SDS011;20158;51.436;-2.742;2022-09-25T07:31:19;3.47;;;2.47;;
33862;SDS011;20158;51.436;-2.742;2022-09-25T07:33:48;4.25;;;2.90;;
33862;SDS011;20158;51.436;-2.742;2022-09-25T07:36:14;4.38;;;3.03;;
33862;SDS011;20158;51.436;-2.742;2022-09-25T07:38:41;5.80;;;3.20;;
33862;SDS011;20158;51.436;-2.742;2022-09-25T07:41:18;2.85;;;2.35;;
33862;SDS011;20158;51.436;-2.742;2022-09-25T07:43:54;6.47;;;3.17;;
33862;SDS011;20158;51.436;-2.742;2022-09-25T07:46:25;4.72;;;2.63;;
33862;SDS011;20158;51.436;-2.742;2022-09-25T07:48:52;4.13;;;2.50;;
33862;SDS011;20158;51.436;-2.742;2022-09-25T07:51:27;5.22;;;3.35;;
33862;SDS011;20158;51.436;-2.742;2022-09-25T07:53:53;3.53;;;2.58;;
33862;SDS011;20158;51.436;-2.742;2022-09-25T07:56:19;5.15;;;2.63;;
33862;SDS011;20158;51.436;-2.742;2022-09-25T07:58:46;5.03;;;2.80;;
33862;SDS011;20158;51.436;-2.742;2022-09-25T08:01:12;4.05;;;3.03;;
33862;SDS011;20158;51.436;-2.742;2022-09-25T08:03:38;4.63;;;3.45;;
33862;SDS011;20158;51.436;-2.742;2022-09-25T08:06:07;4.38;;;3.15;;
33862;SDS011;20158;51.436;-2.742;2022-09-25T08:08:38;7.25;;;3.67;;
33862;SDS011;20158;51.436;-2.742;2022-09-25T08:11:07;5.93;;;3.15;;
33862;SDS011;20158;51.436;-2.742;2022-09-25T08:13:36;5.40;;;3.00;;
33862;SDS011;20158;51.436;-2.742;2022-09-25T08:16:04;4.97;;;2.63;;
33862;SDS011;20158;51.436;-2.742;2022-09-25T08:18:43;6.60;;;3.47;;
33862;SDS011;20158;51.436;-2.742;2022-09-25T08:23:39;3.72;;;3.28;;
33862;SDS011;20158;51.436;-2.742;2022-09-25T08:26:06;5.88;;;3.38;;
33862;SDS011;20158;51.436;-2.742;2022-09-25T08:28:32;4.22;;;3.30;;
33862;SDS011;20158;51.436;-2.742;2022-09-25T08:30:58;7.78;;;3.40;;
33862;SDS011;20158;51.436;-2.742;2022-09-25T08:33:26;8.93;;;4.00;;
33862;SDS011;20158;51.436;-2.742;2022-09-25T08:35:56;7.82;;;3.53;;
33862;SDS011;20158;51.436;-2.742;2022-09-25T08:38:26;9.98;;;3.83;;
33862;SDS011;20158;51.436;-2.742;2022-09-25T08:40:55;6.90;;;3.70;;
33862;SDS011;20158;51.436;-2.742;2022-09-25T08:43:28;5.80;;;3.30;;
33862;SDS011;20158;51.436;-2.742;2022-09-25T08:45:57;5.15;;;3.15;;
33862;SDS011;20158;51.436;-2.742;2022-09-25T08:48:53;6.30;;;3.25;;
33862;SDS011;20158;51.436;-2.742;2022-09-25T08:51:48;7.63;;;3.60;;
33862;SDS011;20158;51.436;-2.742;2022-09-25T08:54:20;4.95;;;3.40;;
33862;SDS011;20158;51.436;-2.742;2022-09-25T08:56:52;7.15;;;3.45;;
33862;SDS011;20158;51.436;-2.742;2022-09-25T08:59:31;5.07;;;3.47;;
33862;SDS011;20158;51.436;-2.742;2022-09-25T09:02:03;4.00;;;3.20;;
33862;SDS011;20158;51.436;-2.742;2022-09-25T09:04:52;7.72;;;3.40;;
33862;SDS011;20158;51.436;-2.742;2022-09-25T09:10:24;7.82;;;3.50;;
33862;SDS011;20158;51.436;-2.742;2022-09-25T09:12:57;5.65;;;3.00;;
33862;SDS011;20158;51.436;-2.742;2022-09-25T09:15:39;5.63;;;2.80;;
33862;SDS011;20158;51.436;-2.742;2022-09-25T09:18:23;5.57;;;2.75;;
33862;SDS011;20158;51.436;-2.742;2022-09-25T09:20:56;4.18;;;2.92;;
33862;SDS011;20158;51.436;-2.742;2022-09-25T09:23:32;7.03;;;3.10;;
33862;SDS011;20158;51.436;-2.742;2022-09-25T09:26:01;5.88;;;2.83;;
33862;SDS011;20158;51.436;-2.742;2022-09-25T09:40:48;5.32;;;3.15;;
33862;SDS011;20158;51.436;-2.742;2022-09-25T09:46:31;4.85;;;2.75;;
33862;SDS011;20158;51.436;-2.742;2022-09-25T09:49:25;11.13;;;4.47;;
33862;SDS011;20158;51.436;-2.742;2022-09-25T09:52:01;6.68;;;2.63;;
33862;SDS011;20158;51.436;-2.742;2022-09-25T09:54:43;4.68;;;2.95;;
33862;SDS011;20158;51.436;-2.742;2022-09-25T09:57:16;4.43;;;2.70;;
33862;SDS011;20158;51.436;-2.742;2022-09-25T10:00:06;5.00;;;2.78;;
33862;SDS011;20158;51.436;-2.742;2022-09-25T10:02:39;6.25;;;2.50;;
33862;SDS011;20158;51.436;-2.742;2022-09-25T10:05:25;4.35;;;2.25;;
33862;SDS011;20158;51.436;-2.742;2022-09-25T10:08:02;4.00;;;1.90;;
33862;SDS011;20158;51.436;-2.742;2022-09-25T10:13:14;3.63;;;2.38;;
33862;SDS011;20158;51.436;-2.742;2022-09-25T10:16:00;3.00;;;1.30;;
33862;SDS011;20158;51.436;-2.742;2022-09-25T10:18:45;4.63;;;1.20;;
33862;SDS011;20158;51.436;-2.742;2022-09-25T10:21:21;2.90;;;0.98;;
33862;SDS011;20158;51.436;-2.742;2022-09-25T10:23:52;2.35;;;0.82;;
33862;SDS011;20158;51.436;-2.742;2022-09-25T10:28:57;3.08;;;0.90;;
33862;SDS011;20158;51.436;-2.742;2022-09-25T10:31:26;3.10;;;0.77;;
33862;SDS011;20158;51.436;-2.742;2022-09-25T10:34:37;2.22;;;0.52;;
33862;SDS011;20158;51.436;-2.742;2022-09-25T10:36:56;1.55;;;0.80;;
33862;SDS011;20158;51.436;-2.742;2022-09-25T10:39:29;2.80;;;0.85;;
33862;SDS011;20158;51.436;-2.742;2022-09-25T10:42:00;1.73;;;1.15;;
33862;SDS011;20158;51.436;-2.742;2022-09-25T10:50:18;2.40;;;0.85;;
33862;SDS011;20158;51.436;-2.742;2022-09-25T10:52:52;1.08;;;0.60;;
33862;SDS011;20158;51.436;-2.742;2022-09-25T10:55:25;2.90;;;0.50;;
33862;SDS011;20158;51.436;-2.742;2022-09-25T11:03:18;1.90;;;0.80;;
33862;SDS011;20158;51.436;-2.742;2022-09-25T11:05:51;1.55;;;0.60;;
33862;SDS011;20158;51.436;-2.742;2022-09-25T11:08:22;4.10;;;1.38;;
33862;SDS011;20158;51.436;-2.742;2022-09-25T11:10:52;1.92;;;0.85;;
33862;SDS011;20158;51.436;-2.742;2022-09-25T11:13:29;1.40;;;0.65;;
33862;SDS011;20158;51.436;-2.742;2022-09-25T11:16:04;2.88;;;0.88;;
33862;SDS011;20158;51.436;-2.742;2022-09-25T11:21:02;1.50;;;0.50;;
33862;SDS011;20158;51.436;-2.742;2022-09-25T11:23:38;2.15;;;0.70;;
33862;SDS011;20158;51.436;-2.742;2022-09-25T11:26:11;3.22;;;1.05;;
33862;SDS011;20158;51.436;-2.742;2022-09-25T11:28:49;1.65;;;0.50;;
33862;SDS011;20158;51.436;-2.742;2022-09-25T11:31:29;1.98;;;0.80;;
33862;SDS011;20158;51.436;-2.742;2022-09-25T11:37:22;2.67;;;1.00;;
33862;SDS011;20158;51.436;-2.742;2022-09-25T11:42:51;1.67;;;0.70;;
33862;SDS011;20158;51.436;-2.742;2022-09-25T11:45:31;1.13;;;0.50;;
33862;SDS011;20158;51.436;-2.742;2022-09-25T11:48:17;1.52;;;0.60;;
33862;SDS011;20158;51.436;-2.742;2022-09-25T11:56:22;1.65;;;0.50;;
33862;SDS011;20158;51.436;-2.742;2022-09-25T11:59:01;2.40;;;0.60;;
33862;SDS011;20158;51.436;-2.742;2022-09-25T12:01:53;2.40;;;1.17;;
33862;SDS011;20158;51.436;-2.742;2022-09-25T12:07:14;1.80;;;0.70;;
33862;SDS011;20158;51.436;-2.742;2022-09-25T12:10:12;1.27;;;0.50;;
33862;SDS011;20158;51.436;-2.742;2022-09-25T12:13:09;2.63;;;0.90;;
33862;SDS011;20158;51.436;-2.742;2022-09-25T12:20:51;5.28;;;1.35;;
33862;SDS011;20158;51.436;-2.742;2022-09-25T12:23:28;2.03;;;0.82;;
33862;SDS011;20158;51.436;-2.742;2022-09-25T12:40:13;3.40;;;1.38;;
33862;SDS011;20158;51.436;-2.742;2022-09-25T12:42:46;2.13;;;0.80;;
33862;SDS011;20158;51.436;-2.742;2022-09-25T12:50:36;2.25;;;0.93;;
33862;SDS011;20158;51.436;-2.742;2022-09-25T12:53:35;3.00;;;0.90;;
33862;SDS011;20158;51.436;-2.742;2022-09-25T12:59:04;2.95;;;1.30;;
33862;SDS011;20158;51.436;-2.742;2022-09-25T13:04:40;3.53;;;1.30;;
33862;SDS011;20158;51.436;-2.742;2022-09-25T13:07:33;2.72;;;1.30;;
33862;SDS011;20158;51.436;-2.742;2022-09-25T13:10:17;3.15;;;1.30;;
33862;SDS011;20158;51.436;-2.742;2022-09-25T13:12:51;3.25;;;1.35;;
33862;SDS011;20158;51.436;-2.742;2022-09-25T13:15:24;2.88;;;1.63;;
33862;SDS011;20158;51.436;-2.742;2022-09-25T13:17:54;2.42;;;1.20;;
33862;SDS011;20158;51.436;-2.742;2022-09-25T13:22:55;3.70;;;1.35;;
33862;SDS011;20158;51.436;-2.742;2022-09-25T13:25:24;4.45;;;1.63;;
33862;SDS011;20158;51.436;-2.742;2022-09-25T13:27:51;2.67;;;1.20;;
33862;SDS011;20158;51.436;-2.742;2022-09-25T13:30:19;2.80;;;0.93;;
33862;SDS011;20158;51.436;-2.742;2022-09-25T13:32:50;2.45;;;1.00;;
33862;SDS011;20158;51.436;-2.742;2022-09-25T13:35:19;2.13;;;0.75;;
33862;SDS011;20158;51.436;-2.742;2022-09-25T13:37:49;2.42;;;1.02;;
33862;SDS011;20158;51.436;-2.742;2022-09-25T13:40:17;1.23;;;0.90;;
33862;SDS011;20158;51.436;-2.742;2022-09-25T13:46:35;1.85;;;0.88;;
33862;SDS011;20158;51.436;-2.742;2022-09-25T13:48:39;2.00;;;0.93;;
33862;SDS011;20158;51.436;-2.742;2022-09-25T14:01:35;2.55;;;0.88;;
33862;SDS011;20158;51.436;-2.742;2022-09-25T14:04:22;2.28;;;0.90;;
33862;SDS011;20158;51.436;-2.742;2022-09-25T14:06:53;2.10;;;1.02;;
33862;SDS011;20158;51.436;-2.742;2022-09-25T14:09:28;2.42;;;0.75;;
33862;SDS011;20158;51.436;-2.742;2022-09-25T14:12:08;1.67;;;0.80;;
33862;SDS011;20158;51.436;-2.742;2022-09-25T14:14:56;1.98;;;1.13;;
33862;SDS011;20158;51.436;-2.742;2022-09-25T14:17:38;2.00;;;0.88;;
33862;SDS011;20158;51.436;-2.742;2022-09-25T14:20:17;2.15;;;0.85;;
33862;SDS011;20158;51.436;-2.742;2022-09-25T14:22:54;2.17;;;0.80;;
33862;SDS011;20158;51.436;-2.742;2022-09-25T14:27:58;2.78;;;1.13;;
33862;SDS011;20158;51.436;-2.742;2022-09-25T14:30:25;2.92;;;0.88;;
33862;SDS011;20158;51.436;-2.742;2022-09-25T14:38:21;1.92;;;0.73;;
33862;SDS011;20158;51.436;-2.742;2022-09-25T14:43:58;1.92;;;0.88;;
33862;SDS011;20158;51.436;-2.742;2022-09-25T14:51:49;1.30;;;0.85;;
33862;SDS011;20158;51.436;-2.742;2022-09-25T14:54:20;1.52;;;0.68;;
33862;SDS011;20158;51.436;-2.742;2022-09-25T14:56:49;1.33;;;0.60;;
33862;SDS011;20158;51.436;-2.742;2022-09-25T14:59:28;1.50;;;0.70;;
33862;SDS011;20158;51.436;-2.742;2022-09-25T15:01:58;1.60;;;0.70;;
33862;SDS011;20158;51.436;-2.742;2022-09-25T15:04:28;5.60;;;1.52;;
33862;SDS011;20158;51.436;-2.742;2022-09-25T15:07:15;1.67;;;0.80;;
33862;SDS011;20158;51.436;-2.742;2022-09-25T15:09:45;1.00;;;0.68;;
33862;SDS011;20158;51.436;-2.742;2022-09-25T15:17:24;1.33;;;0.63;;
33862;SDS011;20158;51.436;-2.742;2022-09-25T15:19:52;1.85;;;0.57;;
33862;SDS011;20158;51.436;-2.742;2022-09-25T15:22:22;1.85;;;0.60;;
33862;SDS011;20158;51.436;-2.742;2022-09-25T15:24:53;1.15;;;0.50;;
33862;SDS011;20158;51.436;-2.742;2022-09-25T15:27:23;2.17;;;0.60;;
33862;SDS011;20158;51.436;-2.742;2022-09-25T15:29:53;1.17;;;0.80;;
33862;SDS011;20158;51.436;-2.742;2022-09-25T15:32:21;1.52;;;1.00;;
33862;SDS011;20158;51.436;-2.742;2022-09-25T15:35:03;1.90;;;0.70;;
33862;SDS011;20158;51.436;-2.742;2022-09-25T15:37:55;0.82;;;0.50;;
33862;SDS011;20158;51.436;-2.742;2022-09-25T15:40:36;1.15;;;0.50;;
33862;SDS011;20158;51.436;-2.742;2022-09-25T15:43:02;4.53;;;0.90;;
33862;SDS011;20158;51.436;-2.742;2022-09-25T15:46:03;1.30;;;0.55;;
33862;SDS011;20158;51.436;-2.742;2022-09-25T15:48:56;3.38;;;0.93;;
33862;SDS011;20158;51.436;-2.742;2022-09-25T15:51:24;2.78;;;1.52;;
33862;SDS011;20158;51.436;-2.742;2022-09-25T15:57:02;1.77;;;1.00;;
33862;SDS011;20158;51.436;-2.742;2022-09-25T15:59:43;1.63;;;0.82;;
33862;SDS011;20158;51.436;-2.742;2022-09-25T16:02:30;1.52;;;1.08;;
33862;SDS011;20158;51.436;-2.742;2022-09-25T16:05:18;1.83;;;0.90;;
33862;SDS011;20158;51.436;-2.742;2022-09-25T16:07:52;2.08;;;0.73;;
33862;SDS011;20158;51.436;-2.742;2022-09-25T16:13:51;3.72;;;1.10;;
33862;SDS011;20158;51.436;-2.742;2022-09-25T16:16:25;2.33;;;0.98;;
33862;SDS011;20158;51.436;-2.742;2022-09-25T16:18:57;1.35;;;0.70;;
33862;SDS011;20158;51.436;-2.742;2022-09-25T16:24:06;2.42;;;0.90;;
33862;SDS011;20158;51.436;-2.742;2022-09-25T16:26:41;2.72;;;1.23;;
33862;SDS011;20158;51.436;-2.742;2022-09-25T16:31:37;2.35;;;1.45;;
33862;SDS011;20158;51.436;-2.742;2022-09-25T16:34:13;2.78;;;1.60;;
33862;SDS011;20158;51.436;-2.742;2022-09-25T16:36:50;2.47;;;1.08;;
33862;SDS011;20158;51.436;-2.742;2022-09-25T16:39:21;4.25;;;1.50;;
33862;SDS011;20158;51.436;-2.742;2022-09-25T16:41:49;2.92;;;1.13;;
33862;SDS011;20158;51.436;-2.742;2022-09-25T16:44:16;5.28;;;1.63;;
33862;SDS011;20158;51.436;-2.742;2022-09-25T16:47:14;2.00;;;1.10;;
33862;SDS011;20158;51.436;-2.742;2022-09-25T16:49:46;2.80;;;1.67;;
33862;SDS011;20158;51.436;-2.742;2022-09-25T16:52:15;2.67;;;1.42;;
33862;SDS011;20158;51.436;-2.742;2022-09-25T16:54:49;2.80;;;1.50;;
33862;SDS011;20158;51.436;-2.742;2022-09-25T16:57:20;3.72;;;1.83;;
33862;SDS011;20158;51.436;-2.742;2022-09-25T16:59:50;3.28;;;1.42;;
33862;SDS011;20158;51.436;-2.742;2022-09-25T17:02:29;2.67;;;1.70;;
33862;SDS011;20158;51.436;-2.742;2022-09-25T17:04:59;3.65;;;1.60;;
33862;SDS011;20158;51.436;-2.742;2022-09-25T17:07:26;3.47;;;1.52;;
33862;SDS011;20158;51.436;-2.742;2022-09-25T17:09:53;3.30;;;1.67;;
33862;SDS011;20158;51.436;-2.742;2022-09-25T17:12:19;4.13;;;1.83;;
33862;SDS011;20158;51.436;-2.742;2022-09-25T17:14:47;4.68;;;1.40;;
33862;SDS011;20158;51.436;-2.742;2022-09-25T17:17:16;3.53;;;1.42;;
33862;SDS011;20158;51.436;-2.742;2022-09-25T17:19:45;3.13;;;1.80;;
33862;SDS011;20158;51.436;-2.742;2022-09-25T17:22:12;3.55;;;1.60;;
33862;SDS011;20158;51.436;-2.742;2022-09-25T17:24:38;3.13;;;1.00;;
33862;SDS011;20158;51.436;-2.742;2022-09-25T17:27:11;3.70;;;1.83;;
33862;SDS011;20158;51.436;-2.742;2022-09-25T17:29:38;2.05;;;0.90;;
33862;SDS011;20158;51.436;-2.742;2022-09-25T17:32:09;2.80;;;1.20;;
33862;SDS011;20158;51.436;-2.742;2022-09-25T17:34:39;2.85;;;1.00;;
33862;SDS011;20158;51.436;-2.742;2022-09-25T17:37:06;3.40;;;1.00;;
33862;SDS011;20158;51.436;-2.742;2022-09-25T17:39:32;2.65;;;1.67;;
33862;SDS011;20158;51.436;-2.742;2022-09-25T17:41:58;2.45;;;1.30;;
33862;SDS011;20158;51.436;-2.742;2022-09-25T17:44:25;2.22;;;1.02;;
33862;SDS011;20158;51.436;-2.742;2022-09-25T17:46:52;2.38;;;1.30;;
33862;SDS011;20158;51.436;-2.742;2022-09-25T17:49:21;2.53;;;1.13;;
33862;SDS011;20158;51.436;-2.742;2022-09-25T17:51:48;2.08;;;1.40;;
33862;SDS011;20158;51.436;-2.742;2022-09-25T17:54:14;4.10;;;1.27;;
33862;SDS011;20158;51.436;-2.742;2022-09-25T17:56:41;3.15;;;1.40;;
33862;SDS011;20158;51.436;-2.742;2022-09-25T17:59:09;2.05;;;1.30;;